createdAt,value
2018-11-26T00:00:59.402Z,57.63
2018-11-26T00:03:31.814Z,58.80
2018-11-26T00:06:04.440Z,61.33
2018-11-26T00:08:36.987Z,50.60
2018-11-26T00:11:42.278Z,52.83
2018-11-26T00:14:14.756Z,55.30
2018-11-26T00:16:47.191Z,57.93
2018-11-26T00:19:19.651Z,53.63
2018-11-26T00:21:52.105Z,54.23
2018-11-26T00:24:24.571Z,57.20
2018-11-26T00:26:56.945Z,57.83
2018-11-26T00:29:29.410Z,56.60
2018-11-26T00:32:01.843Z,55.00
2018-11-26T00:34:34.331Z,57.77
2018-11-26T00:37:06.782Z,55.07
2018-11-26T00:39:39.285Z,65.63
2018-11-26T00:42:11.723Z,54.67
2018-11-26T00:44:44.166Z,57.70
2018-11-26T00:47:16.538Z,58.37
2018-11-26T00:49:49.009Z,56.40
2018-11-26T00:52:21.485Z,54.63
2018-11-26T00:54:53.899Z,58.93
2018-11-26T00:57:26.283Z,57.87
2018-11-26T00:59:58.799Z,58.13
2018-11-26T01:02:31.253Z,56.17
2018-11-26T01:05:03.994Z,57.07
2018-11-26T01:07:36.450Z,56.77
2018-11-26T01:10:09.027Z,60.00
2018-11-26T01:12:41.456Z,55.90
2018-11-26T01:15:13.902Z,59.33
2018-11-26T01:17:46.352Z,57.53
2018-11-26T01:20:18.761Z,54.77
2018-11-26T01:22:51.174Z,56.50
2018-11-26T01:25:23.569Z,55.30
2018-11-26T01:27:56.056Z,55.13
2018-11-26T01:30:28.647Z,55.93
2018-11-26T01:33:01.174Z,56.03
2018-11-26T01:35:33.603Z,61.40
2018-11-26T01:38:06.158Z,58.43
2018-11-26T01:40:44.335Z,55.50
2018-11-26T01:43:16.886Z,58.00
2018-11-26T01:45:49.335Z,55.83
2018-11-26T01:48:21.874Z,60.93
2018-11-26T01:50:54.360Z,52.93
2018-11-26T01:53:26.821Z,56.60
2018-11-26T01:55:59.237Z,49.90
2018-11-26T01:58:31.612Z,59.53
2018-11-26T02:01:04.090Z,50.77
2018-11-26T02:03:36.484Z,51.07
2018-11-26T02:06:08.968Z,53.47
2018-11-26T02:08:41.415Z,46.47
2018-11-26T02:11:13.865Z,53.20
2018-11-26T02:13:46.291Z,54.37
2018-11-26T02:16:18.729Z,53.97
2018-11-26T02:18:51.130Z,52.53
2018-11-26T02:21:23.671Z,45.90
2018-11-26T02:23:56.079Z,53.10
2018-11-26T02:26:28.578Z,47.03
2018-11-26T02:29:01.053Z,49.27
2018-11-26T02:31:34.674Z,51.77
2018-11-26T02:34:07.100Z,48.83
2018-11-26T02:36:39.697Z,48.17
2018-11-26T02:39:12.089Z,47.53
2018-11-26T02:41:44.528Z,46.23
2018-11-26T02:44:16.883Z,49.10
2018-11-26T02:46:49.377Z,44.73
2018-11-26T02:49:21.766Z,46.27
2018-11-26T02:51:54.249Z,44.90
2018-11-26T02:54:26.646Z,45.80
2018-11-26T02:56:59.103Z,40.80
2018-11-26T02:59:31.504Z,43.43
2018-11-26T03:02:03.978Z,41.90
2018-11-26T03:04:36.430Z,42.93
2018-11-26T03:07:08.858Z,43.47
2018-11-26T03:09:41.265Z,40.63
2018-11-26T03:12:13.771Z,43.30
2018-11-26T03:14:46.150Z,43.00
2018-11-26T03:17:18.599Z,36.23
2018-11-26T03:19:51.016Z,38.60
2018-11-26T03:22:23.529Z,37.57
2018-11-26T03:24:55.912Z,39.37
2018-11-26T03:27:28.329Z,38.33
2018-11-26T03:30:00.789Z,44.13
2018-11-26T03:32:33.392Z,39.10
2018-11-26T03:35:06.885Z,38.47
2018-11-26T03:37:39.317Z,37.00
2018-11-26T03:40:12.497Z,46.90
2018-11-26T03:42:44.958Z,43.07
2018-11-26T03:45:17.958Z,41.57
2018-11-26T03:47:50.413Z,37.13
2018-11-26T03:50:22.835Z,40.77
2018-11-26T03:52:55.378Z,38.57
2018-11-26T03:55:27.747Z,46.90
2018-11-26T03:58:00.255Z,38.30
2018-11-26T04:00:32.680Z,42.80
2018-11-26T04:03:05.101Z,38.93
2018-11-26T04:05:37.466Z,42.67
2018-11-26T04:08:09.878Z,43.93
2018-11-26T04:10:42.281Z,42.30
2018-11-26T04:13:14.747Z,42.67
2018-11-26T04:15:47.172Z,50.43
2018-11-26T04:18:19.631Z,39.70
2018-11-26T04:20:52.114Z,43.80
2018-11-26T04:23:24.757Z,39.70
2018-11-26T04:25:57.202Z,46.00
2018-11-26T04:28:29.600Z,41.77
2018-11-26T04:31:02.044Z,40.00
2018-11-26T04:33:34.490Z,40.33
2018-11-26T04:36:07.089Z,44.67
2018-11-26T04:38:39.465Z,41.27
2018-11-26T04:41:11.962Z,43.47
2018-11-26T04:43:44.401Z,40.80
2018-11-26T04:46:16.926Z,41.73
2018-11-26T04:48:49.451Z,40.93
2018-11-26T04:51:21.879Z,48.63
2018-11-26T04:53:54.515Z,47.63
2018-11-26T04:56:26.980Z,44.40
2018-11-26T04:58:59.406Z,40.73
2018-11-26T05:01:32.157Z,38.60
2018-11-26T05:04:05.167Z,40.63
2018-11-26T05:06:37.777Z,41.83
2018-11-26T05:09:10.240Z,41.47
2018-11-26T05:11:42.749Z,42.37
2018-11-26T05:14:15.193Z,43.20
2018-11-26T05:16:47.616Z,38.93
2018-11-26T05:19:20.282Z,42.73
2018-11-26T05:21:52.733Z,42.40
2018-11-26T05:24:25.244Z,41.67
2018-11-26T05:26:57.663Z,40.17
2018-11-26T05:29:30.278Z,46.37
2018-11-26T05:32:02.719Z,44.70
2018-11-26T05:34:37.233Z,45.87
2018-11-26T05:37:09.643Z,45.07
2018-11-26T05:39:42.216Z,43.90
2018-11-26T05:42:14.653Z,45.77
2018-11-26T05:44:47.061Z,45.70
2018-11-26T05:47:19.506Z,47.73
2018-11-26T05:49:51.917Z,46.10
2018-11-26T05:52:24.327Z,51.63
2018-11-26T05:54:56.947Z,48.80
2018-11-26T05:57:29.375Z,46.00
2018-11-26T06:00:01.824Z,48.13
2018-11-26T06:02:34.278Z,48.20
2018-11-26T06:05:06.819Z,50.17
2018-11-26T06:07:39.398Z,45.17
2018-11-26T06:10:11.898Z,50.60
2018-11-26T06:12:44.351Z,47.33
2018-11-26T06:15:16.861Z,49.77
2018-11-26T06:17:49.275Z,47.93
2018-11-26T06:20:21.854Z,52.87
2018-11-26T06:22:54.327Z,48.80
2018-11-26T06:25:26.846Z,47.27
2018-11-26T06:27:59.326Z,48.03
2018-11-26T06:30:31.868Z,51.60
2018-11-26T06:33:04.655Z,49.53
2018-11-26T06:35:37.361Z,50.17
2018-11-26T06:38:09.913Z,56.50
2018-11-26T06:40:42.379Z,48.97
2018-11-26T06:43:14.983Z,54.27
2018-11-26T06:45:47.417Z,51.67
2018-11-26T06:48:19.882Z,50.80
2018-11-26T06:50:52.310Z,51.03
2018-11-26T06:53:24.774Z,49.47
2018-11-26T06:55:57.252Z,51.17
2018-11-26T06:58:30.004Z,49.17
2018-11-26T07:01:02.469Z,48.87
2018-11-26T07:03:35.007Z,48.00
2018-11-26T07:06:07.498Z,47.87
2018-11-26T07:08:39.900Z,51.83
2018-11-26T07:11:12.400Z,51.87
2018-11-26T07:13:44.835Z,51.73
2018-11-26T07:16:18.326Z,52.07
2018-11-26T07:18:50.753Z,49.93
2018-11-26T07:21:23.271Z,55.87
2018-11-26T07:23:55.740Z,55.50
2018-11-26T07:26:28.243Z,50.17
2018-11-26T07:29:00.624Z,49.80
2018-11-26T07:31:33.195Z,48.00
2018-11-26T07:34:05.609Z,55.03
2018-11-26T07:36:38.155Z,51.33
2018-11-26T07:39:10.544Z,49.70
2018-11-26T07:41:43.021Z,51.63
2018-11-26T07:44:15.426Z,51.60
2018-11-26T07:46:47.864Z,48.07
2018-11-26T07:49:20.269Z,53.33
2018-11-26T07:51:52.665Z,54.17
2018-11-26T07:54:25.026Z,50.83
2018-11-26T07:56:57.539Z,49.00
2018-11-26T07:59:30.162Z,50.90
2018-11-26T08:02:02.639Z,47.97
2018-11-26T08:04:35.137Z,46.00
2018-11-26T08:07:07.581Z,49.33
2018-11-26T08:09:40.141Z,49.37
2018-11-26T08:12:12.675Z,50.23
2018-11-26T08:14:45.152Z,49.33
2018-11-26T08:17:17.893Z,47.10
2018-11-26T08:19:50.333Z,48.27
2018-11-26T08:22:22.809Z,47.90
2018-11-26T08:24:55.263Z,44.77
2018-11-26T08:27:27.732Z,49.33
2018-11-26T08:30:00.161Z,48.30
2018-11-26T08:33:03.505Z,46.70
2018-11-26T08:35:36.002Z,43.67
2018-11-26T08:38:13.154Z,45.43
2018-11-26T08:40:49.054Z,41.77
2018-11-26T08:43:27.204Z,37.73
2018-11-26T08:46:04.210Z,42.87
2018-11-26T08:48:43.143Z,43.90
2018-11-26T08:51:15.551Z,42.43
2018-11-26T08:53:48.039Z,42.77
2018-11-26T08:56:20.443Z,41.03
2018-11-26T08:58:52.904Z,44.57
2018-11-26T09:01:31.103Z,42.50
2018-11-26T09:04:03.987Z,33.97
2018-11-26T09:06:37.089Z,38.03
2018-11-26T09:09:10.458Z,37.87
2018-11-26T09:11:43.112Z,38.97
2018-11-26T09:14:15.608Z,36.73
2018-11-26T09:16:48.232Z,36.17
2018-11-26T09:19:20.946Z,36.83
2018-11-26T09:21:53.596Z,36.30
2018-11-26T09:24:26.134Z,35.47
2018-11-26T09:26:58.663Z,35.53
2018-11-26T09:29:31.191Z,33.83
2018-11-26T09:32:03.897Z,34.27
2018-11-26T09:34:36.377Z,42.27
2018-11-26T09:37:08.920Z,38.20
2018-11-26T09:39:41.548Z,36.50
2018-11-26T09:42:14.670Z,37.27
2018-11-26T09:44:47.172Z,36.80
2018-11-26T09:47:19.694Z,34.90
2018-11-26T09:49:52.501Z,54.90
2018-11-26T09:52:24.923Z,50.30
2018-11-26T09:54:57.563Z,46.33
2018-11-26T09:57:30.052Z,35.87
2018-11-26T10:00:08.134Z,34.23
2018-11-26T10:02:41.446Z,33.77
2018-11-26T10:05:17.097Z,35.27
2018-11-26T10:07:49.954Z,45.90
2018-11-26T10:10:22.605Z,41.67
2018-11-26T10:12:55.171Z,43.87
2018-11-26T10:15:27.861Z,36.20
2018-11-26T10:18:15.287Z,33.60
2018-11-26T10:20:48.409Z,31.03
2018-11-26T10:23:21.047Z,33.87
2018-11-26T10:25:53.862Z,36.83
2018-11-26T10:28:26.386Z,32.47
2018-11-26T10:30:58.791Z,32.97
2018-11-26T10:33:31.251Z,31.17
2018-11-26T10:36:03.768Z,31.23
2018-11-26T10:38:36.431Z,30.17
2018-11-26T10:41:09.364Z,30.53
2018-11-26T10:43:41.865Z,31.13
2018-11-26T10:46:14.495Z,31.60
2018-11-26T10:48:47.020Z,28.57
2018-11-26T10:51:19.476Z,27.27
2018-11-26T10:53:52.074Z,32.57
2018-11-26T10:56:24.549Z,30.63
2018-11-26T10:58:57.002Z,30.60
2018-11-26T11:01:35.276Z,27.47
2018-11-26T11:04:07.862Z,28.67
2018-11-26T11:06:40.365Z,28.87
2018-11-26T11:09:14.228Z,33.13
2018-11-26T11:11:46.738Z,31.57
2018-11-26T11:14:19.250Z,29.23
2018-11-26T11:16:51.768Z,29.43
2018-11-26T11:19:24.267Z,30.00
2018-11-26T11:21:56.736Z,27.93
2018-11-26T11:24:29.265Z,28.33
2018-11-26T11:27:01.710Z,28.17
2018-11-26T11:29:34.168Z,28.50
2018-11-26T11:32:06.637Z,25.97
2018-11-26T11:34:39.327Z,27.60
2018-11-26T11:37:11.939Z,43.83
2018-11-26T11:39:44.394Z,30.13
2018-11-26T11:42:17.733Z,36.23
2018-11-26T11:44:50.418Z,34.13
2018-11-26T11:47:23.008Z,28.27
2018-11-26T11:49:55.611Z,26.87
2018-11-26T11:52:28.128Z,26.60
2018-11-26T11:55:01.062Z,25.20
2018-11-26T11:57:33.725Z,26.20
2018-11-26T12:00:10.403Z,26.30
2018-11-26T12:02:43.159Z,27.57
2018-11-26T12:05:15.686Z,24.57
2018-11-26T12:07:48.323Z,24.43
2018-11-26T12:10:20.986Z,26.37
2018-11-26T12:12:53.525Z,25.40
2018-11-26T12:15:26.099Z,25.17
2018-11-26T12:17:58.630Z,27.23
2018-11-26T12:20:31.188Z,25.83
2018-11-26T12:23:03.948Z,23.17
2018-11-26T12:25:36.569Z,28.03
2018-11-26T12:28:09.108Z,25.00
2018-11-26T12:30:44.458Z,24.90
2018-11-26T12:33:17.041Z,26.70
2018-11-26T12:35:49.727Z,23.13
2018-11-26T12:38:22.254Z,25.17
2018-11-26T12:40:54.820Z,24.37
2018-11-26T12:43:27.351Z,22.93
2018-11-26T12:45:59.857Z,22.87
2018-11-26T12:48:32.662Z,27.57
2018-11-26T12:51:05.246Z,24.80
2018-11-26T12:53:37.842Z,24.00
2018-11-26T12:56:10.316Z,23.03
2018-11-26T12:58:42.871Z,19.80
2018-11-26T13:01:15.495Z,20.60
2018-11-26T13:03:48.011Z,19.23
2018-11-26T13:06:20.476Z,20.90
2018-11-26T13:08:52.993Z,22.63
2018-11-26T13:11:25.437Z,33.07
2018-11-26T13:13:57.901Z,25.93
2018-11-26T13:16:30.334Z,26.33
2018-11-26T13:19:02.908Z,25.43
2018-11-26T13:21:35.418Z,23.90
2018-11-26T13:24:08.136Z,22.70
2018-11-26T13:26:40.686Z,21.93
2018-11-26T13:29:13.300Z,24.27
2018-11-26T13:31:45.746Z,25.37
2018-11-26T13:34:18.285Z,23.37
2018-11-26T13:36:50.717Z,24.93
2018-11-26T13:39:23.755Z,24.50
2018-11-26T13:41:56.337Z,23.50
2018-11-26T13:44:28.980Z,22.80
2018-11-26T13:47:01.512Z,27.30
2018-11-26T13:49:34.057Z,22.07
2018-11-26T13:52:06.515Z,25.03
2018-11-26T13:54:38.960Z,26.20
2018-11-26T13:57:11.442Z,23.67
2018-11-26T13:59:43.890Z,22.13
2018-11-26T14:02:19.601Z,23.70
2018-11-26T14:04:51.991Z,23.23
2018-11-26T14:07:24.419Z,29.20
2018-11-26T14:09:56.979Z,21.80
2018-11-26T14:12:29.437Z,22.30
2018-11-26T14:15:02.011Z,24.90
2018-11-26T14:17:34.485Z,25.47
2018-11-26T14:20:10.558Z,27.40
2018-11-26T14:22:43.112Z,33.03
2018-11-26T14:25:17.774Z,30.20
2018-11-26T14:27:50.290Z,30.00
2018-11-26T14:30:24.536Z,27.93
2018-11-26T14:32:57.103Z,25.73
2018-11-26T14:35:29.705Z,25.97
2018-11-26T14:38:03.980Z,28.03
2018-11-26T14:40:41.490Z,23.87
2018-11-26T14:43:14.042Z,24.73
2018-11-26T14:45:46.724Z,21.17
2018-11-26T14:48:19.191Z,37.50
2018-11-26T14:50:51.980Z,40.03
2018-11-26T14:53:24.510Z,22.77
2018-11-26T14:55:57.088Z,22.13
2018-11-26T14:58:29.635Z,24.27
2018-11-26T15:01:02.185Z,21.87
2018-11-26T15:03:34.826Z,25.07
2018-11-26T15:06:07.537Z,23.40
2018-11-26T15:08:39.989Z,26.60
2018-11-26T15:11:12.445Z,23.73
2018-11-26T15:13:44.891Z,22.87
2018-11-26T15:16:17.485Z,21.60
2018-11-26T15:18:49.958Z,18.20
2018-11-26T15:21:22.442Z,21.60
2018-11-26T15:23:54.909Z,21.93
2018-11-26T15:26:27.731Z,22.80
2018-11-26T15:28:59.983Z,27.40
2018-11-26T15:31:32.534Z,24.93
2018-11-26T15:34:05.218Z,26.90
2018-11-26T15:36:37.794Z,28.53
2018-11-26T15:39:10.235Z,47.23
2018-11-26T15:41:42.693Z,28.80
2018-11-26T15:44:15.149Z,26.43
2018-11-26T15:46:47.666Z,26.33
2018-11-26T15:49:20.208Z,26.27
2018-11-26T15:51:52.613Z,24.57
2018-11-26T15:54:25.217Z,29.17
2018-11-26T15:56:57.692Z,23.07
2018-11-26T15:59:30.263Z,22.90
2018-11-26T16:02:03.363Z,19.83
2018-11-26T16:04:35.834Z,22.23
2018-11-26T16:07:09.841Z,29.33
2018-11-26T16:09:42.256Z,33.37
2018-11-26T16:12:14.754Z,30.67
2018-11-26T16:14:47.258Z,21.20
2018-11-26T16:17:19.689Z,20.53
2018-11-26T16:19:52.183Z,17.53
2018-11-26T16:22:25.912Z,23.83
2018-11-26T16:24:58.391Z,18.97
2018-11-26T16:27:32.260Z,20.00
2018-11-26T16:30:06.613Z,23.47
2018-11-26T16:32:39.318Z,21.17
2018-11-26T16:35:16.021Z,23.33
2018-11-26T16:37:48.547Z,22.23
2018-11-26T16:40:21.093Z,22.50
2018-11-26T16:42:53.539Z,22.63
2018-11-26T16:45:27.058Z,28.03
2018-11-26T16:48:00.405Z,21.90
2018-11-26T16:50:34.217Z,20.60
2018-11-26T16:53:07.099Z,21.23
2018-11-26T16:55:39.802Z,20.00
2018-11-26T16:58:12.301Z,21.97
2018-11-26T17:00:44.793Z,23.43
2018-11-26T17:03:17.278Z,21.17
2018-11-26T17:05:49.740Z,23.03
2018-11-26T17:08:23.652Z,21.47
2018-11-26T17:10:56.336Z,21.80
2018-11-26T17:13:28.988Z,20.40
2018-11-26T17:16:01.455Z,21.20
2018-11-26T17:18:33.994Z,19.13
2018-11-26T17:21:06.512Z,21.23
2018-11-26T17:23:38.985Z,21.90
2018-11-26T17:26:11.410Z,23.53
2018-11-26T17:28:44.031Z,18.13
2018-11-26T17:31:16.589Z,20.30
2018-11-26T17:33:49.155Z,17.07
2018-11-26T17:36:21.659Z,23.83
2018-11-26T17:38:54.159Z,21.57
2018-11-26T17:41:26.642Z,19.10
2018-11-26T17:43:59.036Z,21.33
2018-11-26T17:46:31.564Z,18.33
2018-11-26T17:49:04.851Z,18.60
2018-11-26T17:51:37.312Z,19.27
2018-11-26T17:54:09.853Z,17.13
2018-11-26T17:56:42.350Z,18.50
2018-11-26T17:59:14.879Z,17.33
2018-11-26T18:01:47.482Z,15.80
2018-11-26T18:04:19.897Z,18.03
2018-11-26T18:06:52.382Z,29.87
2018-11-26T18:09:24.942Z,28.03
2018-11-26T18:11:57.433Z,32.40
2018-11-26T18:14:29.822Z,20.97
2018-11-26T18:17:02.652Z,20.47
2018-11-26T18:19:35.176Z,20.53
2018-11-26T18:22:07.690Z,19.57
2018-11-26T18:24:40.149Z,21.77
2018-11-26T18:27:12.608Z,16.13
2018-11-26T18:29:45.255Z,17.80
2018-11-26T18:32:17.688Z,20.43
2018-11-26T18:34:50.162Z,17.47
2018-11-26T18:37:23.017Z,19.23
2018-11-26T18:39:55.461Z,18.90
2018-11-26T18:42:28.043Z,19.03
2018-11-26T18:45:00.485Z,19.80
2018-11-26T18:47:33.242Z,16.87
2018-11-26T18:50:10.237Z,19.00
2018-11-26T18:52:43.277Z,18.30
2018-11-26T18:55:15.764Z,17.23
2018-11-26T18:57:48.275Z,21.57
2018-11-26T19:00:26.059Z,18.97
2018-11-26T19:02:58.717Z,21.20
2018-11-26T19:05:31.121Z,17.77
2018-11-26T19:08:03.618Z,20.43
2018-11-26T19:10:36.869Z,19.83
2018-11-26T19:13:14.506Z,18.03
2018-11-26T19:15:48.273Z,19.70
2018-11-26T19:18:23.946Z,20.87
2018-11-26T19:20:56.428Z,20.80
2018-11-26T19:23:28.896Z,21.63
2018-11-26T19:26:01.290Z,22.43
2018-11-26T19:28:33.749Z,22.73
2018-11-26T19:31:06.941Z,22.87
2018-11-26T19:33:39.440Z,26.53
2018-11-26T19:36:11.880Z,24.77
2018-11-26T19:38:44.329Z,27.23
2018-11-26T19:41:16.763Z,27.07
2018-11-26T19:43:49.200Z,28.03
2018-11-26T19:46:21.682Z,27.97
2018-11-26T19:48:54.304Z,28.00
2018-11-26T19:51:26.729Z,31.77
2018-11-26T19:53:59.173Z,34.60
2018-11-26T19:56:31.622Z,33.97
2018-11-26T19:59:04.053Z,32.60
2018-11-26T20:01:36.501Z,36.10
2018-11-26T20:06:24.473Z,29.07
2018-11-26T20:08:58.776Z,34.37
2018-11-26T20:11:33.363Z,38.23
2018-11-26T20:14:04.478Z,36.03
2018-11-26T20:16:39.538Z,34.67
2018-11-26T20:19:12.011Z,34.37
2018-11-26T20:21:44.491Z,34.90
2018-11-26T20:24:17.077Z,32.90
2018-11-26T20:26:49.549Z,30.33
2018-11-26T20:29:21.961Z,32.17
2018-11-26T20:31:54.536Z,31.70
2018-11-26T20:34:27.011Z,34.40
2018-11-26T20:36:59.406Z,36.90
2018-11-26T20:39:31.908Z,33.83
2018-11-26T20:42:04.628Z,35.07
2018-11-26T20:44:37.039Z,36.50
2018-11-26T20:47:09.472Z,29.43
2018-11-26T20:49:42.094Z,34.53
2018-11-26T20:52:14.576Z,38.63
2018-11-26T20:54:47.166Z,33.03
2018-11-26T20:57:19.582Z,32.70
2018-11-26T20:59:52.199Z,36.00
2018-11-26T21:02:24.588Z,35.77
2018-11-26T21:04:57.265Z,36.03
2018-11-26T21:07:29.636Z,35.47
2018-11-26T21:10:02.261Z,40.60
2018-11-26T21:12:34.792Z,32.67
2018-11-26T21:15:10.206Z,32.93
2018-11-26T21:17:50.597Z,34.40
2018-11-26T21:20:39.547Z,38.30
2018-11-26T21:23:14.768Z,35.00
2018-11-26T21:25:47.364Z,32.07
2018-11-26T21:28:19.749Z,35.97
2018-11-26T21:30:52.522Z,32.03
2018-11-26T21:33:25.076Z,34.87
2018-11-26T21:35:57.570Z,32.53
2018-11-26T21:38:30.693Z,33.93
2018-11-26T21:41:03.498Z,33.07
2018-11-26T21:43:35.936Z,34.13
2018-11-26T21:46:08.493Z,31.30
2018-11-26T21:48:40.977Z,34.47
2018-11-26T21:51:13.542Z,29.70
2018-11-26T21:53:46.061Z,29.87
2018-11-26T21:56:18.748Z,30.53
2018-11-26T21:58:51.173Z,27.93
2018-11-26T22:01:24.014Z,29.30
2018-11-26T22:03:56.425Z,32.47
2018-11-26T22:06:28.999Z,25.83
2018-11-26T22:09:01.413Z,31.57
2018-11-26T22:11:34.004Z,31.57
2018-11-26T22:14:06.463Z,26.97
2018-11-26T22:16:38.920Z,30.93
2018-11-26T22:19:11.368Z,29.90
2018-11-26T22:21:44.080Z,29.80
2018-11-26T22:24:16.452Z,33.63
2018-11-26T22:26:49.057Z,27.20
2018-11-26T22:29:21.450Z,30.13
2018-11-26T22:31:53.976Z,30.53
2018-11-26T22:34:26.489Z,28.43
2018-11-26T22:36:58.952Z,26.80
2018-11-26T22:39:31.385Z,29.83
2018-11-26T22:42:03.876Z,36.43
2018-11-26T22:44:36.312Z,30.33
2018-11-26T22:47:08.757Z,30.00
2018-11-26T22:49:41.158Z,31.87
2018-11-26T22:52:13.612Z,32.70
2018-11-26T22:54:46.008Z,36.37
2018-11-26T22:57:18.734Z,30.40
2018-11-26T22:59:51.138Z,32.67
2018-11-26T23:02:23.607Z,33.80
2018-11-26T23:04:55.999Z,33.97
2018-11-26T23:07:28.418Z,34.00
2018-11-26T23:10:00.866Z,34.87
2018-11-26T23:12:33.320Z,36.70
2018-11-26T23:15:09.807Z,30.83
2018-11-26T23:17:42.702Z,32.03
2018-11-26T23:20:16.088Z,34.13
2018-11-26T23:22:48.644Z,34.20
2018-11-26T23:25:21.084Z,32.40
2018-11-26T23:27:53.749Z,29.83
2018-11-26T23:30:26.816Z,33.50
2018-11-26T23:33:00.432Z,31.80
2018-11-26T23:35:33.841Z,30.83
2018-11-26T23:38:06.288Z,31.93
2018-11-26T23:40:38.703Z,36.97
2018-11-26T23:43:11.138Z,28.67
2018-11-26T23:45:43.528Z,30.37
2018-11-26T23:48:16.202Z,31.80
2018-11-26T23:50:48.871Z,31.43
2018-11-26T23:53:21.248Z,30.43
2018-11-26T23:55:53.843Z,34.40
2018-11-26T23:58:26.255Z,28.80
